createdAt,value
2022-12-01T00:01:07.809Z,24.40
2022-12-01T00:03:35.368Z,25.30
2022-12-01T00:06:02.977Z,24.75
2022-12-01T00:08:30.957Z,23.85
2022-12-01T00:11:04.876Z,23.25
2022-12-01T00:13:32.332Z,23.27
2022-12-01T00:16:09.589Z,24.65
2022-12-01T00:18:36.181Z,25.67
2022-12-01T00:21:02.792Z,24.98
2022-12-01T00:23:29.539Z,24.23
2022-12-01T00:26:02.833Z,24.02
2022-12-01T00:28:29.432Z,25.15
2022-12-01T00:30:55.997Z,22.77
2022-12-01T00:33:22.663Z,23.70
2022-12-01T00:35:49.267Z,24.77
2022-12-01T00:38:15.906Z,24.08
2022-12-01T00:40:42.785Z,25.23
2022-12-01T00:43:09.403Z,25.52
2022-12-01T00:45:36.064Z,27.67
2022-12-01T00:48:02.770Z,27.13
2022-12-01T00:50:29.667Z,28.98
2022-12-01T00:52:56.235Z,28.67
2022-12-01T00:55:22.805Z,28.38
2022-12-01T00:57:49.366Z,28.67
2022-12-01T01:00:17.194Z,32.85
2022-12-01T01:02:43.925Z,30.30
2022-12-01T01:05:10.907Z,31.05
2022-12-01T01:07:37.741Z,28.60
2022-12-01T01:10:05.225Z,28.40
2022-12-01T01:12:32.198Z,29.38
2022-12-01T01:14:58.876Z,28.95
2022-12-01T01:17:25.506Z,29.67
2022-12-01T01:19:55.152Z,30.15
2022-12-01T01:24:48.209Z,31.60
2022-12-01T01:27:14.810Z,31.15
2022-12-01T01:29:42.573Z,28.30
2022-12-01T01:32:09.274Z,28.67
2022-12-01T01:34:35.874Z,29.33
2022-12-01T01:37:02.524Z,28.85
2022-12-01T01:39:29.251Z,28.05
2022-12-01T01:41:55.805Z,29.15
2022-12-01T01:44:51.478Z,27.80
2022-12-01T01:47:40.129Z,27.08
2022-12-01T01:50:13.611Z,26.15
2022-12-01T01:52:46.197Z,24.60
2022-12-01T01:55:14.550Z,26.75
2022-12-01T01:57:43.589Z,24.10
2022-12-01T02:00:15.290Z,25.02
2022-12-01T02:02:45.451Z,25.77
2022-12-01T02:05:23.901Z,25.27
2022-12-01T02:07:53.363Z,25.60
2022-12-01T02:10:22.698Z,27.15
2022-12-01T02:13:17.000Z,28.05
2022-12-01T02:16:01.422Z,29.73
2022-12-01T02:18:34.978Z,29.23
2022-12-01T02:21:35.502Z,28.23
2022-12-01T02:24:40.971Z,28.75
2022-12-01T02:27:19.675Z,28.60
2022-12-01T02:29:49.476Z,29.57
2022-12-01T02:33:01.225Z,28.52
2022-12-01T02:35:38.147Z,30.77
2022-12-01T02:38:19.975Z,31.08
2022-12-01T02:40:57.541Z,31.83
2022-12-01T02:43:52.105Z,30.63
2022-12-01T02:46:41.856Z,31.08
2022-12-01T02:49:16.959Z,32.80
2022-12-01T02:51:44.930Z,32.38
2022-12-01T02:54:14.585Z,29.45
2022-12-01T02:59:14.985Z,30.15
2022-12-01T03:01:44.930Z,29.90
2022-12-01T03:04:30.419Z,28.90
2022-12-01T03:07:21.465Z,29.88
2022-12-01T03:09:54.011Z,29.60
2022-12-01T03:12:36.756Z,29.42
2022-12-01T03:15:08.718Z,29.02
2022-12-01T03:17:43.940Z,28.65
2022-12-01T03:20:27.876Z,29.38
2022-12-01T03:23:00.354Z,28.63
2022-12-01T03:25:29.690Z,29.00
2022-12-01T03:30:48.590Z,28.25
2022-12-01T03:33:35.035Z,26.90
2022-12-01T03:36:05.101Z,27.85
2022-12-01T03:38:36.197Z,24.88
2022-12-01T03:41:32.334Z,25.80
2022-12-01T03:44:17.294Z,25.70
2022-12-01T03:47:11.481Z,25.20
2022-12-01T03:49:40.270Z,26.60
2022-12-01T03:52:23.268Z,25.80
2022-12-01T03:55:09.098Z,26.50
2022-12-01T03:57:46.558Z,26.48
2022-12-01T04:00:15.547Z,28.80
2022-12-01T04:02:42.832Z,26.52
2022-12-01T04:05:09.452Z,25.63
2022-12-01T04:07:37.789Z,27.25
2022-12-01T04:10:06.119Z,28.73
2022-12-01T04:12:33.137Z,29.73
2022-12-01T04:15:02.376Z,28.52
2022-12-01T04:17:29.016Z,29.60
2022-12-01T04:19:56.293Z,27.70
2022-12-01T04:22:23.349Z,29.88
2022-12-01T04:24:50.015Z,27.73
2022-12-01T04:27:16.902Z,27.88
2022-12-01T04:29:43.492Z,29.80
2022-12-01T04:32:10.371Z,29.73
2022-12-01T04:34:36.939Z,30.00
2022-12-01T04:37:05.688Z,30.83
2022-12-01T04:39:32.290Z,28.40
2022-12-01T04:41:58.982Z,32.30
2022-12-01T04:44:30.121Z,30.90
2022-12-01T04:46:59.936Z,32.50
2022-12-01T04:49:26.695Z,31.08
2022-12-01T04:51:53.294Z,31.58
2022-12-01T04:54:20.048Z,31.75
2022-12-01T04:56:46.639Z,31.83
2022-12-01T04:59:13.194Z,30.42
2022-12-01T05:01:40.156Z,31.58
2022-12-01T05:04:06.977Z,31.17
2022-12-01T05:06:33.768Z,31.98
2022-12-01T05:09:01.906Z,31.25
2022-12-01T05:11:30.524Z,34.05
2022-12-01T05:13:57.259Z,33.40
2022-12-01T05:16:30.010Z,34.03
2022-12-01T05:19:17.115Z,34.05
2022-12-01T05:21:45.498Z,34.28
2022-12-01T05:24:13.605Z,34.85
2022-12-01T05:26:41.551Z,34.83
2022-12-01T05:29:09.616Z,35.28
2022-12-01T05:31:36.539Z,36.13
2022-12-01T05:34:03.262Z,35.30
2022-12-01T05:36:29.806Z,35.95
2022-12-01T05:38:56.408Z,35.67
2022-12-01T05:41:22.999Z,36.15
2022-12-01T05:43:49.750Z,35.78
2022-12-01T05:46:16.612Z,36.63
2022-12-01T05:48:43.436Z,35.88
2022-12-01T05:51:13.111Z,39.10
2022-12-01T05:53:39.990Z,40.13
2022-12-01T05:56:07.978Z,38.47
2022-12-01T05:58:35.265Z,39.10
2022-12-01T06:01:02.668Z,39.85
2022-12-01T06:03:29.577Z,37.60
2022-12-01T06:05:56.437Z,38.50
2022-12-01T06:08:23.134Z,38.08
2022-12-01T06:10:49.764Z,39.95
2022-12-01T06:13:16.457Z,41.15
2022-12-01T06:15:43.275Z,41.67
2022-12-01T06:18:09.850Z,42.10
2022-12-01T06:20:36.496Z,43.65
2022-12-01T06:23:03.186Z,46.70
2022-12-01T06:25:29.852Z,48.65
2022-12-01T06:27:58.274Z,48.60
2022-12-01T06:30:25.650Z,48.05
2022-12-01T06:32:52.329Z,48.58
2022-12-01T06:35:19.653Z,49.20
2022-12-01T06:37:46.272Z,47.67
2022-12-01T06:40:13.165Z,49.40
2022-12-01T06:42:39.835Z,48.15
2022-12-01T06:45:07.059Z,47.88
2022-12-01T06:47:33.723Z,48.75
2022-12-01T06:50:00.752Z,52.00
2022-12-01T06:52:27.333Z,49.92
2022-12-01T06:54:53.928Z,47.85
2022-12-01T06:57:20.941Z,50.70
2022-12-01T06:59:48.089Z,51.70
2022-12-01T07:02:16.517Z,50.45
2022-12-01T07:04:43.133Z,51.58
2022-12-01T07:07:10.486Z,50.03
2022-12-01T07:09:37.080Z,52.05
2022-12-01T07:12:03.774Z,53.63
2022-12-01T07:14:31.626Z,53.20
2022-12-01T07:16:59.088Z,52.22
2022-12-01T07:19:25.716Z,51.58
2022-12-01T07:21:52.317Z,49.50
2022-12-01T07:24:18.875Z,51.70
2022-12-01T07:26:45.518Z,50.40
2022-12-01T07:29:12.367Z,50.67
2022-12-01T07:31:39.183Z,51.05
2022-12-01T07:34:06.565Z,50.80
2022-12-01T07:36:33.556Z,48.00
2022-12-01T07:39:04.100Z,48.28
2022-12-01T07:41:30.674Z,52.75
2022-12-01T07:43:57.243Z,50.50
2022-12-01T07:46:26.254Z,48.95
2022-12-01T07:48:54.197Z,49.67
2022-12-01T07:51:22.332Z,49.78
2022-12-01T07:53:50.508Z,51.13
2022-12-01T07:56:18.014Z,50.90
2022-12-01T07:58:45.024Z,50.95
2022-12-01T08:01:14.723Z,49.03
2022-12-01T08:03:42.363Z,51.72
2022-12-01T08:06:10.260Z,51.35
2022-12-01T08:08:39.400Z,52.03
2022-12-01T08:11:11.714Z,51.90
2022-12-01T08:13:39.161Z,51.33
2022-12-01T08:16:07.944Z,51.50
2022-12-01T08:18:35.486Z,50.40
2022-12-01T08:21:02.287Z,51.65
2022-12-01T08:23:28.850Z,51.53
2022-12-01T08:25:55.554Z,50.75
2022-12-01T08:28:22.440Z,51.67
2022-12-01T08:30:49.178Z,52.53
2022-12-01T08:33:15.917Z,51.72
2022-12-01T08:35:42.648Z,52.55
2022-12-01T08:38:10.045Z,52.40
2022-12-01T08:40:36.638Z,51.40
2022-12-01T08:43:03.321Z,52.40
2022-12-01T08:45:29.953Z,52.75
2022-12-01T08:47:59.894Z,51.85
2022-12-01T08:50:27.520Z,48.92
2022-12-01T08:52:54.512Z,49.08
2022-12-01T08:55:22.294Z,50.58
2022-12-01T08:57:48.951Z,49.97
2022-12-01T09:00:16.629Z,48.95
2022-12-01T09:02:43.421Z,49.22
2022-12-01T09:05:10.300Z,50.58
2022-12-01T09:07:37.003Z,48.72
2022-12-01T09:10:04.746Z,49.03
2022-12-01T09:12:31.304Z,47.13
2022-12-01T09:14:57.852Z,50.85
2022-12-01T09:17:24.566Z,47.13
2022-12-01T09:19:51.639Z,48.00
2022-12-01T09:22:18.481Z,50.40
2022-12-01T09:24:45.155Z,49.10
2022-12-01T09:27:11.851Z,48.15
2022-12-01T09:29:38.527Z,50.22
2022-12-01T09:32:05.325Z,49.38
2022-12-01T09:34:31.942Z,50.03
2022-12-01T09:36:58.912Z,48.97
2022-12-01T09:39:25.855Z,46.72
2022-12-01T09:41:57.631Z,47.20
2022-12-01T09:44:42.456Z,47.92
2022-12-01T09:47:30.443Z,47.65
2022-12-01T09:50:00.314Z,46.42
2022-12-01T09:52:32.591Z,47.28
2022-12-01T09:55:00.788Z,45.47
2022-12-01T09:57:32.530Z,46.63
2022-12-01T10:00:05.278Z,43.72
2022-12-01T10:07:58.814Z,44.22
2022-12-01T10:10:34.415Z,46.00
2022-12-01T10:13:01.619Z,45.67
2022-12-01T10:15:53.298Z,44.53
2022-12-01T10:18:58.284Z,46.45
2022-12-01T10:22:02.609Z,45.78
2022-12-01T10:24:44.228Z,45.65
2022-12-01T10:27:56.150Z,45.55
2022-12-01T10:30:24.087Z,44.03
2022-12-01T10:32:55.077Z,47.22
2022-12-01T10:35:24.287Z,46.33
2022-12-01T10:37:58.336Z,46.67
2022-12-01T10:40:27.430Z,43.63
2022-12-01T10:42:54.736Z,45.50
2022-12-01T10:45:31.574Z,42.78
2022-12-01T10:48:16.454Z,44.05
2022-12-01T10:50:48.432Z,42.35
2022-12-01T10:53:24.427Z,43.30
2022-12-01T10:55:58.858Z,43.95
2022-12-01T10:58:26.222Z,43.08
2022-12-01T11:01:03.316Z,43.88
2022-12-01T11:03:33.000Z,43.70
2022-12-01T11:08:38.957Z,43.28
2022-12-01T11:11:06.462Z,44.50
2022-12-01T11:13:37.152Z,40.63
2022-12-01T11:16:06.238Z,42.47
2022-12-01T11:18:34.617Z,41.40
2022-12-01T11:21:07.219Z,42.88
2022-12-01T11:23:44.507Z,41.45
2022-12-01T11:26:13.526Z,41.67
2022-12-01T11:29:00.525Z,40.28
2022-12-01T11:31:43.454Z,40.58
2022-12-01T11:34:21.042Z,40.00
2022-12-01T11:36:51.550Z,39.35
2022-12-01T11:39:27.196Z,42.03
2022-12-01T11:42:00.216Z,40.60
2022-12-01T11:44:50.161Z,41.95
2022-12-01T11:47:24.446Z,39.53
2022-12-01T11:49:54.487Z,41.95
2022-12-01T11:55:20.192Z,40.03
2022-12-01T11:57:50.053Z,39.15
2022-12-01T12:00:18.797Z,39.25
2022-12-01T12:03:06.879Z,38.00
2022-12-01T12:05:39.324Z,36.15
2022-12-01T12:08:23.879Z,37.03
2022-12-01T12:11:04.003Z,38.13
2022-12-01T12:13:47.575Z,36.85
2022-12-01T12:16:25.342Z,37.22
2022-12-01T12:19:12.780Z,36.50
2022-12-01T12:21:46.195Z,34.15
2022-12-01T12:24:51.239Z,35.35
2022-12-01T12:27:42.506Z,33.75
2022-12-01T12:30:30.179Z,35.28
2022-12-01T12:33:22.959Z,33.40
2022-12-01T12:36:04.674Z,32.38
2022-12-01T12:39:12.089Z,30.17
2022-12-01T12:41:44.450Z,32.45
2022-12-01T12:44:10.954Z,31.45
2022-12-01T12:46:49.912Z,31.42
2022-12-01T12:49:20.678Z,28.55
2022-12-01T12:52:08.360Z,30.23
2022-12-01T12:55:17.559Z,31.45
2022-12-01T12:57:53.741Z,30.50
2022-12-01T13:00:23.781Z,28.88
2022-12-01T13:02:59.718Z,29.90
2022-12-01T13:05:57.524Z,31.13
2022-12-01T13:08:35.277Z,32.03
2022-12-01T13:11:13.090Z,31.70
2022-12-01T13:14:12.073Z,31.67
2022-12-01T13:16:45.456Z,31.75
2022-12-01T13:19:16.787Z,32.08
2022-12-01T13:21:45.859Z,33.13
2022-12-01T13:24:22.794Z,32.65
2022-12-01T13:26:53.905Z,31.80
2022-12-01T13:29:23.610Z,31.83
2022-12-01T13:34:37.247Z,30.52
2022-12-01T13:37:04.436Z,31.23
2022-12-01T13:39:36.466Z,30.58
2022-12-01T13:42:08.860Z,31.90
2022-12-01T13:44:44.784Z,32.60
2022-12-01T13:47:11.272Z,32.97
2022-12-01T13:49:40.721Z,32.15
2022-12-01T13:52:22.692Z,33.03
2022-12-01T13:55:07.450Z,32.25
2022-12-01T13:57:35.688Z,31.60
2022-12-01T14:00:05.672Z,32.00
2022-12-01T14:02:41.038Z,32.97
2022-12-01T14:05:39.514Z,32.08
2022-12-01T14:08:25.119Z,33.42
2022-12-01T14:11:01.633Z,33.33
2022-12-01T14:13:30.028Z,31.80
2022-12-01T14:16:02.661Z,34.63
2022-12-01T14:18:49.267Z,33.92
2022-12-01T14:21:16.557Z,35.25
2022-12-01T14:24:02.523Z,34.15
2022-12-01T14:26:30.452Z,33.42
2022-12-01T14:29:00.230Z,32.90
2022-12-01T14:31:33.113Z,33.95
2022-12-01T14:34:18.884Z,31.80
2022-12-01T14:37:02.807Z,32.30
2022-12-01T14:39:36.802Z,35.25
2022-12-01T14:42:43.101Z,31.63
2022-12-01T14:45:15.084Z,31.15
2022-12-01T14:47:51.346Z,37.08
2022-12-01T14:50:28.255Z,28.80
2022-12-01T14:53:13.748Z,32.88
2022-12-01T14:55:46.065Z,29.30
2022-12-01T14:58:20.494Z,29.10
2022-12-01T15:01:05.599Z,30.17
2022-12-01T15:03:37.360Z,29.55
2022-12-01T15:06:04.804Z,28.70
2022-12-01T15:08:42.002Z,28.55
2022-12-01T15:11:22.729Z,29.02
2022-12-01T15:13:53.199Z,28.80
2022-12-01T15:16:22.882Z,28.20
2022-12-01T15:21:22.324Z,27.50
2022-12-01T15:23:59.396Z,29.48
2022-12-01T15:26:33.492Z,29.38
2022-12-01T15:29:22.617Z,31.42
2022-12-01T15:31:57.991Z,29.15
2022-12-01T15:34:33.605Z,30.55
2022-12-01T15:37:04.566Z,30.17
2022-12-01T15:39:44.882Z,29.50
2022-12-01T15:42:29.551Z,29.63
2022-12-01T15:45:09.669Z,31.05
2022-12-01T15:47:46.235Z,29.63
2022-12-01T15:50:33.921Z,33.13
2022-12-01T15:53:06.349Z,32.92
2022-12-01T15:55:45.156Z,31.00
2022-12-01T15:58:25.827Z,31.55
2022-12-01T16:01:01.208Z,33.65
2022-12-01T16:03:29.702Z,31.83
2022-12-01T16:05:57.800Z,33.20
2022-12-01T16:12:27.846Z,30.30
2022-12-01T16:15:14.816Z,31.02
2022-12-01T16:17:53.244Z,34.75
2022-12-01T16:30:31.902Z,31.70
2022-12-01T16:33:17.093Z,30.35
2022-12-01T16:35:51.835Z,30.58
2022-12-01T16:38:24.227Z,31.10
2022-12-01T16:40:59.676Z,30.73
2022-12-01T16:43:27.418Z,32.95
2022-12-01T16:46:09.346Z,33.80
2022-12-01T16:48:37.600Z,32.85
2022-12-01T16:51:07.691Z,33.50
2022-12-01T16:53:34.716Z,34.22
2022-12-01T16:56:02.231Z,37.33
2022-12-01T16:58:29.192Z,36.08
2022-12-01T17:00:55.896Z,35.13
2022-12-01T17:03:28.677Z,38.15
2022-12-01T17:05:55.614Z,37.17
2022-12-01T17:08:22.706Z,38.85
2022-12-01T17:10:50.748Z,36.83
2022-12-01T17:13:18.477Z,36.50
2022-12-01T17:15:47.640Z,38.33
2022-12-01T17:18:16.271Z,38.42
2022-12-01T17:20:43.130Z,37.70
2022-12-01T17:23:10.075Z,37.13
2022-12-01T17:25:41.037Z,39.75
2022-12-01T17:28:07.911Z,36.90
2022-12-01T17:30:36.392Z,38.55
2022-12-01T17:33:03.095Z,37.15
2022-12-01T17:35:29.697Z,35.60
2022-12-01T17:37:56.238Z,36.58
2022-12-01T17:40:22.917Z,38.70
2022-12-01T17:42:51.099Z,38.55
2022-12-01T17:45:18.957Z,37.08
2022-12-01T17:47:46.156Z,36.25
2022-12-01T17:50:12.796Z,37.50
2022-12-01T17:52:39.396Z,36.70
2022-12-01T17:55:07.302Z,37.42
2022-12-01T17:57:34.620Z,36.85
2022-12-01T18:00:04.134Z,37.53
2022-12-01T18:02:35.170Z,38.30
2022-12-01T18:05:01.839Z,38.40
2022-12-01T18:07:29.022Z,41.00
2022-12-01T18:09:55.578Z,38.03
2022-12-01T18:12:22.301Z,40.85
2022-12-01T18:14:49.123Z,39.03
2022-12-01T18:17:16.024Z,40.08
2022-12-01T18:19:42.556Z,39.05
2022-12-01T18:22:12.516Z,38.13
2022-12-01T18:24:39.083Z,39.70
2022-12-01T18:27:05.799Z,39.95
2022-12-01T18:29:32.397Z,40.67
2022-12-01T18:32:00.272Z,39.42
2022-12-01T18:34:31.998Z,40.13
2022-12-01T18:36:58.718Z,38.25
2022-12-01T18:39:25.470Z,40.67
2022-12-01T18:41:52.257Z,40.85
2022-12-01T18:44:20.527Z,41.45
2022-12-01T18:46:52.867Z,40.05
2022-12-01T18:49:24.314Z,40.40
2022-12-01T18:51:55.614Z,39.72
2022-12-01T18:54:26.627Z,40.90
2022-12-01T18:56:59.418Z,41.00
2022-12-01T18:59:30.597Z,41.85
2022-12-01T19:02:09.110Z,42.55
2022-12-01T19:05:01.370Z,41.53
2022-12-01T19:07:50.624Z,39.03
2022-12-01T19:10:42.341Z,41.22
2022-12-01T19:13:23.159Z,39.92
2022-12-01T19:15:57.179Z,39.67
2022-12-01T19:18:48.004Z,38.58
2022-12-01T19:21:32.488Z,38.10
2022-12-01T19:24:08.378Z,40.63
2022-12-01T19:26:45.214Z,41.78
2022-12-01T19:29:40.241Z,41.53
2022-12-01T19:32:12.480Z,40.97
2022-12-01T19:34:54.792Z,41.45
2022-12-01T19:37:28.796Z,42.38
2022-12-01T19:40:05.623Z,40.50
2022-12-01T19:42:39.766Z,42.20
2022-12-01T19:45:24.027Z,43.40
2022-12-01T19:48:03.243Z,42.47
2022-12-01T19:50:44.933Z,42.38
2022-12-01T19:53:33.281Z,42.08
2022-12-01T19:56:24.201Z,40.10
2022-12-01T19:59:04.196Z,40.47
2022-12-01T20:01:42.840Z,39.80
2022-12-01T20:04:23.777Z,39.78
2022-12-01T20:07:02.976Z,40.00
2022-12-01T20:09:46.871Z,37.72
2022-12-01T20:12:43.207Z,36.63
2022-12-01T20:15:19.637Z,43.03
2022-12-01T20:18:01.953Z,39.20
2022-12-01T20:20:43.108Z,36.42
2022-12-01T20:23:25.857Z,37.90
2022-12-01T20:26:07.368Z,37.38
2022-12-01T20:28:42.909Z,37.38
2022-12-01T20:31:40.682Z,38.60
2022-12-01T20:34:30.695Z,36.97
2022-12-01T20:37:06.550Z,36.78
2022-12-01T20:39:41.072Z,38.25
2022-12-01T20:42:11.459Z,38.78
2022-12-01T20:44:38.268Z,36.88
2022-12-01T20:47:07.850Z,36.97
2022-12-01T20:49:34.942Z,35.65
2022-12-01T20:52:01.931Z,36.95
2022-12-01T20:54:30.062Z,36.22
2022-12-01T20:56:58.568Z,36.90
2022-12-01T20:59:25.654Z,36.85
2022-12-01T21:01:52.639Z,36.72
2022-12-01T21:04:19.512Z,39.63
2022-12-01T21:06:46.320Z,39.88
2022-12-01T21:09:13.366Z,37.85
2022-12-01T21:12:09.011Z,40.17
2022-12-01T21:14:44.515Z,38.97
2022-12-01T21:17:39.744Z,38.83
2022-12-01T21:20:22.110Z,37.88
2022-12-01T21:22:50.326Z,38.80
2022-12-01T21:25:23.897Z,37.50
2022-12-01T21:27:50.796Z,37.20
2022-12-01T21:30:24.976Z,36.72
2022-12-01T21:32:52.859Z,40.15
2022-12-01T21:35:22.267Z,36.83
2022-12-01T21:37:49.326Z,38.33
2022-12-01T21:40:16.517Z,39.22
2022-12-01T21:42:43.609Z,39.65
2022-12-01T21:45:27.526Z,37.20
2022-12-01T21:48:00.105Z,37.80
2022-12-01T21:50:27.394Z,39.67
2022-12-01T21:52:54.133Z,39.45
2022-12-01T21:55:20.625Z,41.90
2022-12-01T21:57:50.033Z,39.75
2022-12-01T22:00:28.770Z,40.70
2022-12-01T22:03:13.249Z,40.73
2022-12-01T22:05:48.902Z,38.15
2022-12-01T22:08:40.488Z,39.17
2022-12-01T22:11:18.665Z,37.13
2022-12-01T22:13:51.255Z,38.47
2022-12-01T22:16:28.016Z,39.97
2022-12-01T22:19:24.808Z,39.42
2022-12-01T22:21:59.584Z,37.35
2022-12-01T22:24:38.863Z,38.65
2022-12-01T22:27:05.406Z,41.88
2022-12-01T22:29:39.172Z,38.85
2022-12-01T22:32:34.029Z,39.97
2022-12-01T22:35:17.094Z,38.05
2022-12-01T22:37:48.112Z,37.75
2022-12-01T22:40:36.299Z,40.00
2022-12-01T22:43:15.361Z,37.65
2022-12-01T22:46:07.394Z,38.10
2022-12-01T22:48:41.418Z,36.90
2022-12-01T22:51:14.179Z,39.40
2022-12-01T22:53:42.194Z,36.25
2022-12-01T22:56:39.693Z,38.63
2022-12-01T22:59:32.449Z,35.45
2022-12-01T23:02:01.782Z,35.95
2022-12-01T23:04:33.318Z,38.65
2022-12-01T23:07:30.715Z,37.47
2022-12-01T23:10:08.554Z,38.20
2022-12-01T23:12:36.390Z,37.25
2022-12-01T23:15:37.628Z,37.05
2022-12-01T23:18:23.522Z,35.38
2022-12-01T23:20:54.367Z,35.92
2022-12-01T23:23:26.284Z,36.45
2022-12-01T23:25:52.998Z,36.92
2022-12-01T23:28:20.744Z,37.92
2022-12-01T23:30:51.211Z,36.60
2022-12-01T23:33:27.731Z,36.97
2022-12-01T23:36:05.177Z,37.92
2022-12-01T23:38:38.038Z,34.80
2022-12-01T23:41:07.571Z,35.75
2022-12-01T23:43:42.808Z,37.83
2022-12-01T23:46:20.851Z,36.92
2022-12-01T23:49:01.260Z,41.47
2022-12-01T23:51:46.735Z,38.40
2022-12-01T23:54:18.190Z,39.15
2022-12-01T23:56:51.635Z,39.70
2022-12-01T23:59:19.793Z,41.53
